Hauptseite
METAR-TAF:

METAR-TAF

Flughäfen :

Flughafen Aleppo

Aleppo, Syrien

Breite: 36-11N, Länge: 037-12E, Höhe: 393 m

Beobachtung

Neuester Wetterbericht von vor 1 Stunde und 1 Minuten, um 21:00 UTC
Wind 8 kt aus West
Temperatur 29°C
Luftfeuchtigkeit 48%
Luftdruck 1006 hPa
Sichtweite 10 km oder mehr
keine Wolken unter 1500 m und keine Kumulonimbus oder Gewitterwolken

METAR: OSAP 122100Z 28008KT CAVOK 29/17 Q1006

Zeit: 01:01 (22:01 UTC)

Prognose

Gültige Prognose vom 11 um 18 UTC bis 12 um 18 UTC
Wind 15 kt aus West
Sichtweite 10 km oder mehr
keine Wolken unter 1500 m und keine Kumulonimbus oder Gewitterwolken
Übergehend zu
vom 11 um 22 UTC bis 11 um 24 UTC
Wind 8 kt aus West/Nordwest
Sichtweite 10 km oder mehr
keine Wolken unter 1500 m und keine Kumulonimbus oder Gewitterwolken

TAF: OSAP 1118/1218 27015KT CAVOK BECMG 1122/1124 30008KT CAVOK

Wetterbeobachtungen und Prognosen von mehr als 4000 Flughäfen (METAR und TAF Bericht).

Die verfügbaren Stationen werden durch gelbe und rote Markierungen auf der Karte dargestellt.

Führen Sie die Maus auf sie, um den Namen der Station zu sehen.

Darauf klicken, um die Beobachtung von Wetterbeobachtungen und Prognosen zu sehen.

Um die Karte zu ändern : klicken Sie auf den grünen Tasten mit einem schwarzen Kreuz Zum Vergrößern, auf den grünen Button mit einem Gedankenstrich zu verkleinern, oder auf die grünen Pfeile für benachbarte Karten.


METAR-TAF: